This is the latest recevied weather packets stored in our database for station/object KB4MOX. If no packets are shown the sender has not sent any weather packets the latest 1 day(s).
| Time | Temp. | Humidity | Pressure | Rain* | Wind** | Luminosity | Snow |
|---|---|---|---|---|---|---|---|
| 1777998161 | 26.11° C | 49% | 1017.1 hPa | 0 mm | 0.89 m/s, 310° | 790 W/m² | - |
| 1777997858 | 25° C | 52% | 1017.2 hPa | 0 mm | 0 m/s | 785 W/m² | - |
| 1777997556 | 24.44° C | 55% | 1017.3 hPa | 0 mm | 0.45 m/s, 88° | 779 W/m² | - |
| 1777997253 | 25° C | 52% | 1017.3 hPa | 0 mm | 1.34 m/s, 95° | 769 W/m² | - |
| 1777996951 | 24.44° C | 53% | 1017.5 hPa | 0 mm | 0.45 m/s, 90° | 764 W/m² | - |
| 1777996647 | 24.44° C | 53% | 1017.3 hPa | 0 mm | 0.45 m/s, 94° | 733 W/m² | - |
| 1777996343 | 23.89° C | 55% | 1017.3 hPa | 0 mm | 0.45 m/s, 82° | 725 W/m² | - |
| 1777996039 | 23.89° C | 55% | 1017.4 hPa | 0 mm | 0.45 m/s, 104° | 749 W/m² | - |
| 1777995736 | 23.33° C | 56% | 1017.3 hPa | 0 mm | 1.34 m/s, 103° | 742 W/m² | - |
| 1777995432 | 22.78° C | 60% | 1017.3 hPa | 0 mm | 0.45 m/s, 51° | 726 W/m² | - |
| 1777995130 | 22.78° C | 59% | 1017.3 hPa | 0 mm | 0 m/s | 683 W/m² | - |
| 1777994826 | 22.78° C | 61% | 1017.4 hPa | 0 mm | 0.89 m/s, 265° | 601 W/m² | - |
| 1777994523 | 22.22° C | 60% | 1017.4 hPa | 0 mm | 0.45 m/s, 90° | 320 W/m² | - |
| 1777994217 | 22.22° C | 61% | 1017.4 hPa | 0 mm | 0.45 m/s, 10° | 246 W/m² | - |
| 1777993915 | 22.22° C | 62% | 1017.5 hPa | 0 mm | 1.79 m/s, 245° | 291 W/m² | - |
| 1777993610 | 22.22° C | 62% | 1017.4 hPa | 0 mm | 0.45 m/s, 187° | 102 W/m² | - |
| 1777993308 | 21.67° C | 63% | 1017.5 hPa | 0 mm | 0.45 m/s, 92° | 103 W/m² | - |
| 1777993003 | 21.67° C | 62% | 1017.5 hPa | 0 mm | 0 m/s | 243 W/m² | - |
| 1777992702 | 21.67° C | 63% | 1017.5 hPa | 0 mm | 0.89 m/s, 76° | 53 W/m² | - |
| 1777992399 | 21.11° C | 65% | 1017.5 hPa | 0 mm | 1.34 m/s, 234° | 363 W/m² | - |
| 1777992097 | 21.11° C | 64% | 1017.6 hPa | 0 mm | 0.45 m/s, 101° | 66 W/m² | - |
| 1777991794 | 20.56° C | 65% | 1017.5 hPa | 0 mm | 0.45 m/s, 128° | 232 W/m² | - |
| 1777991491 | 20.56° C | 65% | 1017.3 hPa | 0 mm | 1.34 m/s, 274° | 53 W/m² | - |
| 1777991188 | 20.56° C | 69% | 1017.4 hPa | 0 mm | 0.89 m/s, 150° | 49 W/m² | - |
| 1777990885 | 20° C | 69% | 1017.4 hPa | 0 mm | 0.45 m/s, 113° | 48 W/m² | - |
* Rain latest hour (hover to see other rain measurements)
** Current wind speed in m/s (hover to see current wind gust speed)